CPV1026 SBFL-SBPA
Flight info
| Callsign | CPV1026 |
|---|---|
| Flight time | 0h 45m |
| Altitude | 26000 |
| Route | UGREV UN857 TIMVI |
| Aircraft | B738/M-SDE3/L |
Departure
| Time | 2026-04-21 13:18 |
|---|---|
| Airport | Hercílio Luz International Airport (SBFL) |
Arrival
| Time | 2026-04-21 14:03 |
|---|---|
| Airport | Porto Alegre-Salgado Filho International Airport (SBPA) |
| Time | Latitude | Longitude | Altitude | Speed | Heading |
|---|---|---|---|---|---|
| 2026-04-21 13:07 | -27.67286 | -48.54542 | 28 ft | 0 kts | 213° |
| 2026-04-21 13:10 | -27.67269 | -48.54529 | 29 ft | 4 kts | 214° |
| 2026-04-21 13:10 | -27.67253 | -48.54518 | 29 ft | 2 kts | 189° |
| 2026-04-21 13:11 | -27.67242 | -48.54520 | 29 ft | 2 kts | 128° |
| 2026-04-21 13:11 | -27.67236 | -48.54530 | 29 ft | 2 kts | 121° |
| 2026-04-21 13:11 | -27.67235 | -48.54532 | 29 ft | 0 kts | 121° |
| 2026-04-21 13:13 | -27.67250 | -48.54504 | 28 ft | 10 kts | 120° |
| 2026-04-21 13:13 | -27.67297 | -48.54406 | 29 ft | 13 kts | 97° |
| 2026-04-21 13:13 | -27.67266 | -48.54360 | 25 ft | 8 kts | 34° |
| 2026-04-21 13:14 | -27.67222 | -48.54323 | 27 ft | 8 kts | 58° |
| 2026-04-21 13:14 | -27.67230 | -48.54260 | 24 ft | 9 kts | 118° |
| 2026-04-21 13:14 | -27.67261 | -48.54202 | 23 ft | 9 kts | 120° |
| 2026-04-21 13:14 | -27.67292 | -48.54146 | 24 ft | 8 kts | 124° |
| 2026-04-21 13:15 | -27.67323 | -48.54093 | 26 ft | 8 kts | 119° |
| 2026-04-21 13:15 | -27.67358 | -48.54019 | 22 ft | 18 kts | 120° |
| 2026-04-21 13:15 | -27.67440 | -48.53868 | 21 ft | 23 kts | 121° |
| 2026-04-21 13:15 | -27.67521 | -48.53716 | 24 ft | 22 kts | 121° |
| 2026-04-21 13:16 | -27.67601 | -48.53568 | 26 ft | 22 kts | 121° |
| 2026-04-21 13:16 | -27.67678 | -48.53424 | 23 ft | 21 kts | 124° |
| 2026-04-21 13:16 | -27.67755 | -48.53290 | 23 ft | 17 kts | 116° |
| 2026-04-21 13:16 | -27.67720 | -48.53198 | 23 ft | 11 kts | 36° |
| 2026-04-21 13:17 | -27.67659 | -48.53153 | 24 ft | 10 kts | 27° |
| 2026-04-21 13:17 | -27.67628 | -48.53159 | 27 ft | 4 kts | 316° |
| 2026-04-21 13:17 | -27.67622 | -48.53170 | 24 ft | 0 kts | 301° |
| 2026-04-21 13:17 | -27.67620 | -48.53174 | 24 ft | 8 kts | 301° |
| 2026-04-21 13:18 | -27.67449 | -48.53493 | 21 ft | 86 kts | 301° |
| 2026-04-21 13:18 | -27.67016 | -48.54297 | 27 ft | 150 kts | 302° |
| 2026-04-21 13:18 | -27.66431 | -48.55402 | 523 ft | 169 kts | 300° |
| 2026-04-21 13:18 | -27.65839 | -48.56553 | 1417 ft | 167 kts | 303° |
| 2026-04-21 13:19 | -27.65209 | -48.57696 | 2135 ft | 180 kts | 304° |
| 2026-04-21 13:19 | -27.64484 | -48.59007 | 2450 ft | 212 kts | 304° |
| 2026-04-21 13:19 | -27.63647 | -48.60535 | 2671 ft | 245 kts | 304° |
| 2026-04-21 13:19 | -27.62731 | -48.62221 | 3322 ft | 257 kts | 304° |
| 2026-04-21 13:20 | -27.61784 | -48.63976 | 4096 ft | 267 kts | 304° |
| 2026-04-21 13:20 | -27.60808 | -48.65793 | 4962 ft | 273 kts | 304° |
| 2026-04-21 13:20 | -27.59841 | -48.67658 | 5829 ft | 278 kts | 296° |
| 2026-04-21 13:20 | -27.59500 | -48.69809 | 6694 ft | 284 kts | 263° |
| 2026-04-21 13:21 | -27.60217 | -48.71824 | 7561 ft | 285 kts | 233° |
| 2026-04-21 13:21 | -27.61702 | -48.73316 | 8351 ft | 289 kts | 212° |
| 2026-04-21 13:21 | -27.63548 | -48.74253 | 9163 ft | 293 kts | 201° |
| 2026-04-21 13:21 | -27.65492 | -48.74998 | 9982 ft | 296 kts | 200° |
| 2026-04-21 13:22 | -27.67494 | -48.75721 | 10477 ft | 312 kts | 199° |
| 2026-04-21 13:22 | -27.69643 | -48.76499 | 10651 ft | 336 kts | 199° |
| 2026-04-21 13:22 | -27.71944 | -48.77344 | 10917 ft | 354 kts | 200° |
| 2026-04-21 13:22 | -27.74312 | -48.78227 | 11474 ft | 361 kts | 200° |
| 2026-04-21 13:23 | -27.76702 | -48.79114 | 12216 ft | 363 kts | 200° |
| 2026-04-21 13:23 | -27.79106 | -48.80014 | 12959 ft | 365 kts | 201° |
| 2026-04-21 13:23 | -27.81538 | -48.80932 | 13641 ft | 369 kts | 201° |
| 2026-04-21 13:23 | -27.83952 | -48.81848 | 14265 ft | 372 kts | 201° |
| 2026-04-21 13:24 | -27.86422 | -48.82787 | 14855 ft | 375 kts | 201° |
| 2026-04-21 13:24 | -27.88920 | -48.83741 | 15360 ft | 382 kts | 201° |
| 2026-04-21 13:24 | -27.91449 | -48.84707 | 15998 ft | 383 kts | 202° |
| 2026-04-21 13:24 | -27.93980 | -48.85677 | 16608 ft | 386 kts | 202° |
| 2026-04-21 13:25 | -27.96551 | -48.86662 | 17163 ft | 391 kts | 202° |
| 2026-04-21 13:25 | -27.99104 | -48.87638 | 17642 ft | 394 kts | 202° |
| 2026-04-21 13:25 | -28.01719 | -48.88634 | 18172 ft | 398 kts | 202° |
| 2026-04-21 13:25 | -28.04355 | -48.89638 | 18704 ft | 401 kts | 202° |
| 2026-04-21 13:26 | -28.07010 | -48.90652 | 19231 ft | 402 kts | 202° |
| 2026-04-21 13:26 | -28.09673 | -48.91668 | 19770 ft | 404 kts | 202° |
| 2026-04-21 13:26 | -28.12335 | -48.92684 | 20326 ft | 405 kts | 202° |
| 2026-04-21 13:26 | -28.15014 | -48.93709 | 20797 ft | 408 kts | 202° |
| 2026-04-21 13:27 | -28.17709 | -48.94741 | 21303 ft | 410 kts | 202° |
| 2026-04-21 13:27 | -28.20356 | -48.95916 | 21805 ft | 408 kts | 210° |
| 2026-04-21 13:27 | -28.22763 | -48.97597 | 22288 ft | 406 kts | 220° |
| 2026-04-21 13:27 | -28.24888 | -48.99696 | 22753 ft | 405 kts | 230° |
| 2026-04-21 13:28 | -28.26748 | -49.02100 | 23232 ft | 405 kts | 232° |
| 2026-04-21 13:28 | -28.28600 | -49.04499 | 23786 ft | 403 kts | 231° |
| 2026-04-21 13:28 | -28.30460 | -49.06838 | 24409 ft | 397 kts | 231° |
| 2026-04-21 13:28 | -28.32324 | -49.09148 | 24932 ft | 395 kts | 230° |
| 2026-04-21 13:29 | -28.34158 | -49.11415 | 25427 ft | 393 kts | 231° |
| 2026-04-21 13:29 | -28.36003 | -49.13697 | 25941 ft | 391 kts | 231° |
| 2026-04-21 13:29 | -28.37848 | -49.15983 | 26081 ft | 392 kts | 231° |
| 2026-04-21 13:29 | -28.39686 | -49.18263 | 26112 ft | 390 kts | 231° |
| 2026-04-21 13:30 | -28.41521 | -49.20542 | 26120 ft | 391 kts | 231° |
| 2026-04-21 13:30 | -28.43359 | -49.22826 | 26122 ft | 391 kts | 231° |
| 2026-04-21 13:30 | -28.45196 | -49.25113 | 26117 ft | 392 kts | 231° |
| 2026-04-21 13:30 | -28.47030 | -49.27398 | 26124 ft | 392 kts | 231° |
| 2026-04-21 13:31 | -28.48866 | -49.29688 | 26117 ft | 392 kts | 231° |
| 2026-04-21 13:31 | -28.50710 | -49.31990 | 26130 ft | 397 kts | 231° |
| 2026-04-21 13:31 | -28.52593 | -49.34343 | 26128 ft | 406 kts | 231° |
| 2026-04-21 13:31 | -28.54489 | -49.36715 | 26126 ft | 414 kts | 231° |
| 2026-04-21 13:32 | -28.56440 | -49.39153 | 26125 ft | 418 kts | 231° |
| 2026-04-21 13:32 | -28.58401 | -49.41605 | 26112 ft | 417 kts | 231° |
| 2026-04-21 13:32 | -28.60349 | -49.44039 | 26124 ft | 416 kts | 231° |
| 2026-04-21 13:32 | -28.62299 | -49.46477 | 26113 ft | 415 kts | 231° |
| 2026-04-21 13:33 | -28.64238 | -49.48903 | 26116 ft | 414 kts | 231° |
| 2026-04-21 13:33 | -28.66178 | -49.51333 | 26114 ft | 413 kts | 231° |
| 2026-04-21 13:33 | -28.68108 | -49.53751 | 26115 ft | 412 kts | 231° |
| 2026-04-21 13:33 | -28.70038 | -49.56173 | 26120 ft | 412 kts | 231° |
| 2026-04-21 13:34 | -28.71963 | -49.58588 | 26125 ft | 411 kts | 231° |
| 2026-04-21 13:34 | -28.73884 | -49.61002 | 26123 ft | 411 kts | 231° |
| 2026-04-21 13:34 | -28.75783 | -49.63388 | 26122 ft | 411 kts | 231° |
| 2026-04-21 13:34 | -28.77705 | -49.65804 | 26124 ft | 411 kts | 231° |
| 2026-04-21 13:35 | -28.79628 | -49.68222 | 26118 ft | 412 kts | 231° |
| 2026-04-21 13:35 | -28.81553 | -49.70644 | 26123 ft | 411 kts | 231° |
| 2026-04-21 13:35 | -28.83445 | -49.73023 | 26103 ft | 397 kts | 231° |
| 2026-04-21 13:35 | -28.85263 | -49.75308 | 26102 ft | 382 kts | 231° |
| 2026-04-21 13:36 | -28.87015 | -49.77514 | 26098 ft | 368 kts | 231° |
| 2026-04-21 13:36 | -28.88705 | -49.79646 | 26110 ft | 358 kts | 231° |
| 2026-04-21 13:36 | -28.90396 | -49.81744 | 25875 ft | 361 kts | 228° |
| 2026-04-21 13:36 | -28.92254 | -49.83664 | 25598 ft | 359 kts | 224° |
| 2026-04-21 13:37 | -28.94192 | -49.85459 | 25214 ft | 358 kts | 223° |
| 2026-04-21 13:37 | -28.96143 | -49.87213 | 24837 ft | 357 kts | 222° |
| 2026-04-21 13:37 | -28.98090 | -49.88964 | 24437 ft | 356 kts | 222° |
| 2026-04-21 13:37 | -29.00029 | -49.90725 | 24041 ft | 356 kts | 222° |
| 2026-04-21 13:38 | -29.01957 | -49.92494 | 23624 ft | 356 kts | 222° |
| 2026-04-21 13:38 | -29.03880 | -49.94270 | 23172 ft | 354 kts | 223° |
| 2026-04-21 13:38 | -29.05785 | -49.96039 | 22770 ft | 351 kts | 223° |
| 2026-04-21 13:38 | -29.07674 | -49.97796 | 22387 ft | 349 kts | 223° |
| 2026-04-21 13:39 | -29.09558 | -49.99553 | 21993 ft | 348 kts | 223° |
| 2026-04-21 13:39 | -29.11428 | -50.01298 | 21604 ft | 346 kts | 223° |
| 2026-04-21 13:39 | -29.13265 | -50.03016 | 21230 ft | 345 kts | 223° |
| 2026-04-21 13:39 | -29.15120 | -50.04751 | 20860 ft | 343 kts | 223° |
| 2026-04-21 13:40 | -29.16970 | -50.06482 | 20472 ft | 342 kts | 223° |
| 2026-04-21 13:40 | -29.18810 | -50.08204 | 20113 ft | 341 kts | 223° |
| 2026-04-21 13:40 | -29.20651 | -50.09925 | 19706 ft | 342 kts | 223° |
| 2026-04-21 13:40 | -29.22490 | -50.11648 | 19350 ft | 341 kts | 223° |
| 2026-04-21 13:41 | -29.24325 | -50.13369 | 18945 ft | 341 kts | 223° |
| 2026-04-21 13:41 | -29.26157 | -50.15086 | 18584 ft | 340 kts | 223° |
| 2026-04-21 13:41 | -29.27984 | -50.16802 | 18171 ft | 339 kts | 223° |
| 2026-04-21 13:41 | -29.29806 | -50.18513 | 17781 ft | 337 kts | 223° |
| 2026-04-21 13:42 | -29.31617 | -50.20213 | 17387 ft | 336 kts | 223° |
| 2026-04-21 13:42 | -29.33418 | -50.21906 | 17009 ft | 334 kts | 224° |
| 2026-04-21 13:42 | -29.35188 | -50.23568 | 16647 ft | 333 kts | 224° |
| 2026-04-21 13:42 | -29.36978 | -50.25251 | 16274 ft | 331 kts | 224° |
| 2026-04-21 13:43 | -29.38750 | -50.26918 | 15921 ft | 329 kts | 224° |
| 2026-04-21 13:43 | -29.40457 | -50.28662 | 15466 ft | 328 kts | 231° |
| 2026-04-21 13:43 | -29.41977 | -50.30616 | 15048 ft | 328 kts | 234° |
| 2026-04-21 13:43 | -29.43428 | -50.32627 | 14648 ft | 327 kts | 235° |
| 2026-04-21 13:44 | -29.44376 | -50.33955 | 14423 ft | 321 kts | 235° |
| 2026-04-21 13:44 | -29.45785 | -50.35917 | 14081 ft | 318 kts | 235° |
| 2026-04-21 13:44 | -29.47196 | -50.37863 | 13702 ft | 317 kts | 234° |
| 2026-04-21 13:44 | -29.48612 | -50.39802 | 13349 ft | 317 kts | 234° |
| 2026-04-21 13:45 | -29.50037 | -50.41740 | 12966 ft | 317 kts | 234° |
| 2026-04-21 13:45 | -29.51463 | -50.43670 | 12600 ft | 315 kts | 233° |
| 2026-04-21 13:45 | -29.52878 | -50.45578 | 12263 ft | 313 kts | 233° |
| 2026-04-21 13:45 | -29.54286 | -50.47477 | 11968 ft | 310 kts | 233° |
| 2026-04-21 13:46 | -29.55678 | -50.49352 | 11720 ft | 306 kts | 233° |
| 2026-04-21 13:46 | -29.56987 | -50.51250 | 11458 ft | 300 kts | 243° |
| 2026-04-21 13:46 | -29.57833 | -50.53419 | 11235 ft | 296 kts | 251° |
| 2026-04-21 13:46 | -29.58594 | -50.55624 | 11037 ft | 297 kts | 251° |
| 2026-04-21 13:47 | -29.59351 | -50.57775 | 11055 ft | 290 kts | 250° |
| 2026-04-21 13:47 | -29.60107 | -50.59885 | 11020 ft | 280 kts | 250° |
| 2026-04-21 13:47 | -29.60843 | -50.61916 | 11001 ft | 269 kts | 250° |
| 2026-04-21 13:47 | -29.61557 | -50.63884 | 10999 ft | 264 kts | 250° |
| 2026-04-21 13:48 | -29.62267 | -50.65839 | 10999 ft | 268 kts | 250° |
| 2026-04-21 13:48 | -29.62992 | -50.67838 | 11015 ft | 273 kts | 250° |
| 2026-04-21 13:48 | -29.63727 | -50.69866 | 11015 ft | 275 kts | 250° |
| 2026-04-21 13:48 | -29.64461 | -50.71885 | 11008 ft | 273 kts | 250° |
| 2026-04-21 13:49 | -29.65193 | -50.73893 | 11009 ft | 272 kts | 250° |
| 2026-04-21 13:49 | -29.65922 | -50.75893 | 11007 ft | 271 kts | 250° |
| 2026-04-21 13:49 | -29.66651 | -50.77891 | 11008 ft | 270 kts | 250° |
| 2026-04-21 13:49 | -29.67377 | -50.79882 | 11005 ft | 270 kts | 250° |
| 2026-04-21 13:50 | -29.68103 | -50.81875 | 11007 ft | 270 kts | 250° |
| 2026-04-21 13:50 | -29.68829 | -50.83867 | 11006 ft | 270 kts | 250° |
| 2026-04-21 13:50 | -29.69554 | -50.85858 | 11010 ft | 270 kts | 250° |
| 2026-04-21 13:50 | -29.70279 | -50.87849 | 11011 ft | 270 kts | 250° |
| 2026-04-21 13:51 | -29.71008 | -50.89851 | 11017 ft | 270 kts | 250° |
| 2026-04-21 13:51 | -29.71726 | -50.91828 | 10916 ft | 277 kts | 250° |
| 2026-04-21 13:51 | -29.72494 | -50.93949 | 10603 ft | 293 kts | 250° |
| 2026-04-21 13:51 | -29.73281 | -50.96114 | 10422 ft | 289 kts | 250° |
| 2026-04-21 13:52 | -29.74048 | -50.98221 | 10250 ft | 282 kts | 250° |
| 2026-04-21 13:52 | -29.74797 | -51.00282 | 10091 ft | 276 kts | 250° |
| 2026-04-21 13:52 | -29.75529 | -51.02300 | 9838 ft | 273 kts | 250° |
| 2026-04-21 13:52 | -29.76261 | -51.04320 | 9542 ft | 272 kts | 250° |
| 2026-04-21 13:53 | -29.76979 | -51.06303 | 9244 ft | 272 kts | 250° |
| 2026-04-21 13:53 | -29.77706 | -51.08312 | 8936 ft | 272 kts | 250° |
| 2026-04-21 13:53 | -29.78431 | -51.10315 | 8629 ft | 271 kts | 250° |
| 2026-04-21 13:53 | -29.79156 | -51.12321 | 8327 ft | 271 kts | 250° |
| 2026-04-21 13:54 | -29.79878 | -51.14321 | 8022 ft | 271 kts | 250° |
| 2026-04-21 13:54 | -29.80600 | -51.16318 | 7717 ft | 271 kts | 250° |
| 2026-04-21 13:54 | -29.81324 | -51.18328 | 7409 ft | 271 kts | 250° |
| 2026-04-21 13:54 | -29.82048 | -51.20343 | 7009 ft | 275 kts | 250° |
| 2026-04-21 13:55 | -29.82783 | -51.22387 | 6696 ft | 276 kts | 250° |
| 2026-04-21 13:55 | -29.83522 | -51.24431 | 6378 ft | 276 kts | 250° |
| 2026-04-21 13:55 | -29.84261 | -51.26474 | 6084 ft | 276 kts | 250° |
| 2026-04-21 13:55 | -29.84995 | -51.28510 | 5799 ft | 275 kts | 250° |
| 2026-04-21 13:56 | -29.85729 | -51.30548 | 5503 ft | 275 kts | 250° |
| 2026-04-21 13:56 | -29.86459 | -51.32577 | 5227 ft | 274 kts | 250° |
| 2026-04-21 13:56 | -29.87190 | -51.34610 | 4956 ft | 275 kts | 250° |
| 2026-04-21 13:56 | -29.87923 | -51.36653 | 4644 ft | 277 kts | 250° |
| 2026-04-21 13:57 | -29.88658 | -51.38701 | 4344 ft | 276 kts | 250° |
| 2026-04-21 13:57 | -29.89386 | -51.40737 | 4037 ft | 271 kts | 250° |
| 2026-04-21 13:57 | -29.90165 | -51.42701 | 3825 ft | 267 kts | 242° |
| 2026-04-21 13:57 | -29.91213 | -51.44380 | 3823 ft | 259 kts | 228° |
| 2026-04-21 13:58 | -29.92629 | -51.45645 | 3807 ft | 260 kts | 205° |
| 2026-04-21 13:58 | -29.94406 | -51.45908 | 3797 ft | 261 kts | 167° |
| 2026-04-21 13:58 | -29.95977 | -51.44932 | 3559 ft | 259 kts | 129° |
| 2026-04-21 13:58 | -29.96863 | -51.43180 | 3404 ft | 250 kts | 116° |
| 2026-04-21 13:59 | -29.98033 | -51.41745 | 3249 ft | 244 kts | 150° |
| 2026-04-21 13:59 | -29.99438 | -51.40760 | 3136 ft | 230 kts | 134° |
| 2026-04-21 13:59 | -30.00087 | -51.39202 | 3016 ft | 210 kts | 91° |
| 2026-04-21 13:59 | -30.00072 | -51.37575 | 2858 ft | 201 kts | 91° |
| 2026-04-21 14:00 | -29.99983 | -51.36008 | 2565 ft | 197 kts | 71° |
| 2026-04-21 14:00 | -29.99567 | -51.34547 | 2431 ft | 189 kts | 77° |
| 2026-04-21 14:00 | -29.99397 | -51.33074 | 2251 ft | 183 kts | 85° |
| 2026-04-21 14:00 | -29.99335 | -51.31621 | 2112 ft | 179 kts | 88° |
| 2026-04-21 14:01 | -29.99299 | -51.30182 | 1943 ft | 178 kts | 86° |
| 2026-04-21 14:01 | -29.99253 | -51.28777 | 1797 ft | 176 kts | 90° |
| 2026-04-21 14:01 | -29.99267 | -51.27367 | 1603 ft | 171 kts | 91° |
| 2026-04-21 14:01 | -29.99291 | -51.26040 | 1364 ft | 157 kts | 91° |
| 2026-04-21 14:02 | -29.99315 | -51.24832 | 1145 ft | 145 kts | 91° |
| 2026-04-21 14:02 | -29.99335 | -51.23661 | 1010 ft | 145 kts | 90° |
| 2026-04-21 14:02 | -29.99357 | -51.22486 | 776 ft | 150 kts | 91° |
| 2026-04-21 14:03 | -29.99404 | -51.20069 | 369 ft | 151 kts | 91° |
| 2026-04-21 14:03 | -29.99428 | -51.18855 | 153 ft | 150 kts | 91° |
| 2026-04-21 14:03 | -29.99446 | -51.17700 | 27 ft | 133 kts | 91° |
| 2026-04-21 14:03 | -29.99459 | -51.17058 | 27 ft | 49 kts | 89° |
| 2026-04-21 14:04 | -29.99464 | -51.16793 | 30 ft | 19 kts | 71° |
| 2026-04-21 14:04 | -29.99416 | -51.16748 | 31 ft | 8 kts | 13° |
| 2026-04-21 14:04 | -29.99362 | -51.16741 | 31 ft | 8 kts | 4° |
| 2026-04-21 14:04 | -29.99309 | -51.16745 | 32 ft | 8 kts | 337° |
| 2026-04-21 14:05 | -29.99281 | -51.16792 | 39 ft | 8 kts | 281° |
| 2026-04-21 14:05 | -29.99276 | -51.16879 | 31 ft | 13 kts | 271° |
| 2026-04-21 14:05 | -29.99274 | -51.16983 | 30 ft | 13 kts | 271° |
| 2026-04-21 14:05 | -29.99271 | -51.17085 | 29 ft | 12 kts | 272° |
| 2026-04-21 14:06 | -29.99271 | -51.17184 | 28 ft | 12 kts | 271° |
| 2026-04-21 14:06 | -29.99269 | -51.17280 | 27 ft | 12 kts | 271° |
| 2026-04-21 14:06 | -29.99261 | -51.17360 | 27 ft | 9 kts | 290° |
| 2026-04-21 14:06 | -29.99208 | -51.17397 | 27 ft | 9 kts | 332° |
| 2026-04-21 14:07 | -29.99179 | -51.17458 | 29 ft | 9 kts | 276° |
| 2026-04-21 14:07 | -29.99171 | -51.17527 | 28 ft | 9 kts | 293° |
| 2026-04-21 14:07 | -29.99131 | -51.17576 | 28 ft | 8 kts | 308° |
| 2026-04-21 14:07 | -29.99126 | -51.17639 | 25 ft | 8 kts | 264° |
| 2026-04-21 14:08 | -29.99104 | -51.17673 | 25 ft | 5 kts | 341° |
| 2026-04-21 14:08 | -29.99080 | -51.17681 | 26 ft | 0 kts | 344° |